Time;durP1;ratioP1;P1;durP2;ratioP2;P2;SDS_P1;SDS_P2;PMS_P1;PMS_P2;Temp;Humidity;BMP_temperature;BMP_pressure;BME280_temperature;BME280_humidity;BME280_pressure;Samples;Min_cycle;Max_cycle;Signal;HPM_P1;HPM_P2
2021/04/23 00:01:01;;;;;;;5.07;2.90;;;3.90;89.30;;;;;;5070232;28;20342;-72
2021/04/23 00:03:31;;;;;;;4.07;2.70;;;3.80;89.40;;;;;;5069577;28;20227;-72
2021/04/23 00:06:02;;;;;;;2.45;2.20;;;3.70;90.00;;;;;;5070486;28;20326;-72
2021/04/23 00:08:31;;;;;;;5.40;2.92;;;3.80;89.90;;;;;;5069860;28;20217;-71
2021/04/23 00:10:57;;;;;;;7.03;3.35;;;3.70;89.50;;;;;;5069349;28;20212;-72
2021/04/23 00:13:25;;;;;;;11.63;3.75;;;3.70;90.10;;;;;;5070096;28;20196;-71
2021/04/23 00:15:53;;;;;;;5.70;2.80;;;3.70;90.20;;;;;;5069713;28;20208;-71
2021/04/23 00:18:19;;;;;;;3.00;2.65;;;3.60;90.10;;;;;;5070104;28;20254;-71
2021/04/23 00:20:47;;;;;;;3.05;2.65;;;3.60;90.30;;;;;;5069596;28;20197;-71
2021/04/23 00:23:15;;;;;;;6.93;2.88;;;3.60;90.30;;;;;;5070258;28;20212;-71
2021/04/23 00:25:41;;;;;;;5.75;2.70;;;3.50;90.50;;;;;;5069925;28;20196;-71
2021/04/23 00:28:11;;;;;;;6.78;3.10;;;3.50;90.60;;;;;;5069465;28;20200;-71
2021/04/23 00:30:43;;;;;;;4.95;3.17;;;3.50;91.00;;;;;;5069334;28;20470;-71
2021/04/23 00:33:10;;;;;;;5.25;3.03;;;3.50;90.80;;;;;;5069623;28;20253;-71
2021/04/23 00:35:41;;;;;;;5.22;3.13;;;3.50;90.80;;;;;;5070039;28;20743;-71
2021/04/23 00:38:10;;;;;;;6.13;3.53;;;3.50;91.10;;;;;;5069331;28;20646;-71
2021/04/23 00:40:39;;;;;;;3.60;3.20;;;3.40;91.00;;;;;;5069290;28;20678;-71
2021/04/23 00:43:07;;;;;;;3.88;2.75;;;3.40;91.30;;;;;;5069383;28;20272;-72
2021/04/23 00:45:33;;;;;;;5.25;2.65;;;3.30;91.40;;;;;;5069872;28;20204;-71
2021/04/23 00:48:05;;;;;;;5.50;2.90;;;3.30;91.60;;;;;;5069331;28;20405;-71
2021/04/23 00:50:36;;;;;;;3.55;2.85;;;3.30;91.70;;;;;;5068986;28;20204;-71
2021/04/23 00:53:03;;;;;;;7.90;3.30;;;3.30;91.70;;;;;;5069603;28;20200;-71
2021/04/23 00:55:29;;;;;;;5.45;4.00;;;3.20;91.90;;;;;;5069442;28;20200;-71
2021/04/23 00:57:56;;;;;;;3.45;2.42;;;3.20;91.70;;;;;;5069379;28;20687;-72
2021/04/23 01:00:23;;;;;;;6.22;4.68;;;3.20;92.10;;;;;;5068982;28;20200;-71
2021/04/23 01:02:50;;;;;;;5.95;3.10;;;3.10;92.40;;;;;;5069437;28;20200;-71
2021/04/23 01:05:20;;;;;;;5.70;2.78;;;3.10;92.20;;;;;;5069503;28;20203;-71
2021/04/23 01:07:47;;;;;;;4.82;3.20;;;3.10;92.00;;;;;;5069649;28;20196;-71
2021/04/23 01:10:15;;;;;;;3.63;2.75;;;3.10;92.20;;;;;;5068931;28;20274;-71
2021/04/23 01:12:41;;;;;;;4.18;2.78;;;3.00;92.20;;;;;;5069480;28;20208;-71
2021/04/23 01:15:10;;;;;;;8.20;2.85;;;3.00;91.90;;;;;;5069765;28;20200;-71
2021/04/23 01:17:36;;;;;;;6.38;3.13;;;3.10;92.10;;;;;;5070269;28;20204;-71
2021/04/23 01:20:04;;;;;;;5.55;3.22;;;3.10;92.20;;;;;;5070419;28;20365;-71
2021/04/23 01:22:31;;;;;;;4.28;2.75;;;3.00;92.50;;;;;;5069295;28;20204;-71
2021/04/23 01:24:58;;;;;;;4.05;2.65;;;3.00;92.50;;;;;;5068837;28;20667;-72
2021/04/23 01:27:24;;;;;;;6.00;3.60;;;2.90;92.60;;;;;;5069736;28;20594;-72
2021/04/23 01:29:51;;;;;;;4.15;2.90;;;3.00;92.60;;;;;;5069048;28;20251;-72
2021/04/23 01:32:17;;;;;;;5.90;3.17;;;2.90;92.70;;;;;;5068591;28;20212;-73
2021/04/23 01:34:45;;;;;;;4.95;2.90;;;2.90;93.20;;;;;;5068961;28;20204;-72
2021/04/23 01:37:13;;;;;;;8.10;3.10;;;2.80;94.00;;;;;;5069059;28;20216;-72
2021/04/23 01:39:42;;;;;;;4.70;3.22;;;2.80;93.60;;;;;;5068779;28;20313;-72
2021/04/23 01:42:10;;;;;;;6.20;3.00;;;2.80;93.50;;;;;;5068196;28;20619;-72
2021/04/23 01:44:37;;;;;;;11.25;3.00;;;2.80;93.50;;;;;;5068898;28;20683;-72
2021/04/23 01:47:04;;;;;;;7.07;3.30;;;2.80;93.30;;;;;;5068515;28;20218;-72
2021/04/23 01:49:31;;;;;;;5.10;3.13;;;2.80;93.40;;;;;;5068638;28;20631;-72
2021/04/23 01:51:59;;;;;;;3.25;2.85;;;2.70;93.40;;;;;;5068722;28;20204;-73
2021/04/23 01:54:28;;;;;;;8.45;2.83;;;2.70;93.20;;;;;;5068841;28;20274;-73
2021/04/23 01:56:55;;;;;;;6.18;2.65;;;2.70;93.10;;;;;;5068777;28;20196;-73
2021/04/23 01:59:24;;;;;;;3.55;2.97;;;2.70;93.20;;;;;;5068628;28;20234;-73
2021/04/23 02:01:50;;;;;;;6.63;2.85;;;2.60;93.20;;;;;;5068479;28;20213;-73
2021/04/23 02:04:17;;;;;;;7.63;3.22;;;2.60;93.40;;;;;;5068340;28;20675;-73
2021/04/23 02:06:47;;;;;;;7.63;3.20;;;2.60;93.40;;;;;;5068614;28;20568;-73
2021/04/23 02:09:13;;;;;;;5.40;3.15;;;2.60;93.50;;;;;;5068846;28;20282;-72
2021/04/23 02:11:42;;;;;;;3.72;3.08;;;2.60;93.70;;;;;;5068864;28;20751;-72
2021/04/23 02:14:09;;;;;;;4.63;2.90;;;2.60;93.80;;;;;;5068848;28;20208;-72
2021/04/23 02:16:35;;;;;;;4.53;3.60;;;2.60;93.70;;;;;;5069294;28;20227;-73
2021/04/23 02:19:02;;;;;;;4.45;3.47;;;2.50;93.80;;;;;;5068524;28;20228;-72
2021/04/23 02:21:28;;;;;;;5.95;3.05;;;2.50;93.90;;;;;;5068220;28;20200;-72
2021/04/23 02:23:55;;;;;;;5.88;2.97;;;2.40;94.00;;;;;;5067494;28;20683;-72
2021/04/23 02:26:21;;;;;;;8.13;3.90;;;2.40;93.90;;;;;;5069485;28;20197;-72
2021/04/23 02:28:49;;;;;;;4.97;3.10;;;2.50;94.10;;;;;;5071782;28;20217;-72
2021/04/23 02:31:19;;;;;;;5.22;3.58;;;2.40;94.10;;;;;;5071452;28;20683;-72
2021/04/23 02:33:47;;;;;;;4.38;2.90;;;2.40;94.30;;;;;;5072010;28;20572;-72
2021/04/23 02:36:14;;;;;;;4.60;3.30;;;2.30;94.40;;;;;;5071908;28;20204;-72
2021/04/23 02:38:41;;;;;;;5.40;3.80;;;2.30;94.80;;;;;;5071811;28;20255;-72
2021/04/23 02:41:08;;;;;;;4.32;3.10;;;2.30;95.00;;;;;;5071701;28;20215;-72
2021/04/23 02:43:38;;;;;;;5.93;3.30;;;2.30;95.30;;;;;;5072122;28;20224;-72
2021/04/23 02:46:07;;;;;;;9.75;3.92;;;2.20;95.60;;;;;;5071628;28;20205;-72
2021/04/23 02:48:38;;;;;;;7.82;3.50;;;2.20;96.00;;;;;;5071610;28;20221;-72
2021/04/23 02:51:09;;;;;;;6.45;3.28;;;2.20;95.70;;;;;;5070899;28;20275;-72
2021/04/23 02:53:35;;;;;;;4.13;2.90;;;2.20;95.70;;;;;;5071844;28;20219;-72
2021/04/23 02:56:04;;;;;;;5.60;3.33;;;2.10;95.80;;;;;;5071235;28;20737;-72
2021/04/23 02:58:30;;;;;;;10.40;3.80;;;2.10;95.90;;;;;;5071294;28;20239;-72
2021/04/23 03:01:01;;;;;;;4.72;3.50;;;2.10;96.00;;;;;;5070939;28;20254;-72
2021/04/23 03:03:29;;;;;;;5.38;3.40;;;2.10;96.20;;;;;;5071415;28;20196;-73
2021/04/23 03:05:57;;;;;;;5.05;3.80;;;2.00;96.40;;;;;;5071356;28;20205;-73
2021/04/23 03:08:23;;;;;;;6.03;3.40;;;2.00;96.50;;;;;;5071078;28;20224;-72
2021/04/23 03:10:53;;;;;;;5.75;3.78;;;2.00;96.50;;;;;;5070799;28;20661;-72
2021/04/23 03:13:21;;;;;;;7.28;3.70;;;1.90;96.70;;;;;;5071135;28;20212;-72
2021/04/23 03:15:48;;;;;;;6.28;3.30;;;1.90;96.90;;;;;;5071249;28;20205;-72
2021/04/23 03:18:16;;;;;;;8.38;4.00;;;2.00;97.10;;;;;;5070889;28;20224;-72
2021/04/23 03:20:42;;;;;;;9.55;3.80;;;2.00;97.00;;;;;;5070582;28;20201;-72
2021/04/23 03:23:10;;;;;;;9.02;3.88;;;1.90;97.00;;;;;;5071133;28;20204;-72
2021/04/23 03:25:37;;;;;;;4.97;3.45;;;1.90;97.00;;;;;;5070954;28;20215;-72
2021/04/23 03:28:04;;;;;;;3.47;3.13;;;1.90;97.10;;;;;;5070839;28;20204;-73
2021/04/23 03:30:33;;;;;;;7.88;3.72;;;1.90;97.40;;;;;;5070623;28;20611;-72
2021/04/23 03:33:00;;;;;;;5.55;3.03;;;1.90;97.80;;;;;;5070648;28;20679;-72
2021/04/23 03:35:28;;;;;;;9.00;3.80;;;1.80;97.80;;;;;;5070733;28;20207;-72
2021/04/23 03:37:56;;;;;;;5.82;3.88;;;1.90;97.60;;;;;;5069393;28;20220;-72
2021/04/23 03:40:26;;;;;;;5.85;3.35;;;1.80;97.60;;;;;;5069870;28;20224;-72
2021/04/23 03:42:52;;;;;;;6.18;4.05;;;1.80;97.80;;;;;;5070697;28;20204;-72
2021/04/23 03:45:21;;;;;;;12.70;3.78;;;1.80;98.00;;;;;;5070558;28;20208;-72
2021/04/23 03:47:48;;;;;;;5.50;3.35;;;1.70;97.90;;;;;;5070846;28;20218;-72
2021/04/23 03:50:18;;;;;;;9.52;4.43;;;1.70;98.00;;;;;;5069757;28;20224;-73
2021/04/23 03:52:44;;;;;;;5.88;3.35;;;1.70;98.10;;;;;;5070470;28;20211;-72
2021/04/23 03:55:16;;;;;;;5.60;3.10;;;1.70;98.30;;;;;;5070143;28;20197;-73
2021/04/23 03:57:44;;;;;;;7.03;4.03;;;1.70;98.60;;;;;;5070674;28;20216;-73
2021/04/23 04:00:14;;;;;;;5.57;3.30;;;1.60;98.80;;;;;;5070682;28;20220;-73
2021/04/23 04:02:40;;;;;;;8.27;4.43;;;1.60;98.80;;;;;;5071412;28;20204;-73
2021/04/23 04:05:08;;;;;;;8.27;3.70;;;1.70;98.80;;;;;;5071149;28;20695;-73
2021/04/23 04:07:35;;;;;;;3.90;3.03;;;1.60;98.90;;;;;;5072090;28;20898;-72
2021/04/23 04:10:01;;;;;;;11.90;5.10;;;1.60;99.00;;;;;;5085442;28;20203;-73
2021/04/23 04:12:27;;;;;;;5.85;4.65;;;1.60;99.40;;;;;;5096374;28;20238;-73
2021/04/23 04:14:54;;;;;;;7.57;4.20;;;1.60;99.50;;;;;;5094120;28;20450;-71
2021/04/23 04:17:20;;;;;;;8.30;3.80;;;1.60;99.60;;;;;;5071400;28;20204;-72
2021/04/23 04:19:47;;;;;;;6.70;4.55;;;1.60;99.70;;;;;;5070195;28;20228;-72
2021/04/23 04:22:13;;;;;;;10.07;4.60;;;1.60;99.70;;;;;;5068691;28;20258;-71
2021/04/23 04:24:39;;;;;;;7.55;3.80;;;1.60;99.90;;;;;;5068467;28;20287;-72
2021/04/23 04:27:06;;;;;;;8.27;3.95;;;1.60;99.90;;;;;;5069017;28;20204;-72
2021/04/23 04:29:32;;;;;;;10.52;5.15;;;1.60;99.90;;;;;;5070542;28;20694;-72
2021/04/23 04:31:59;;;;;;;8.18;5.30;;;1.60;99.90;;;;;;5069844;28;20197;-72
2021/04/23 04:34:26;;;;;;;6.10;3.50;;;1.50;99.90;;;;;;5069532;28;20208;-71
2021/04/23 04:36:52;;;;;;;8.77;4.53;;;1.60;99.90;;;;;;5069757;28;20196;-71
2021/04/23 04:39:19;;;;;;;11.10;4.07;;;1.60;99.90;;;;;;5069186;28;20620;-72
2021/04/23 04:41:46;;;;;;;6.80;4.25;;;1.60;99.90;;;;;;5069067;28;20206;-71
2021/04/23 04:44:12;;;;;;;7.28;4.50;;;1.60;99.90;;;;;;5069441;28;20204;-71
2021/04/23 04:46:38;;;;;;;6.55;4.30;;;1.70;99.90;;;;;;5069605;28;20227;-71
2021/04/23 04:49:05;;;;;;;8.93;3.90;;;1.70;99.90;;;;;;5069215;28;20222;-71
2021/04/23 04:51:32;;;;;;;6.22;3.53;;;1.70;99.90;;;;;;5068777;28;20581;-72
2021/04/23 04:53:58;;;;;;;4.25;3.42;;;1.70;99.90;;;;;;5069308;28;20204;-71
2021/04/23 04:56:24;;;;;;;6.45;3.80;;;1.70;99.90;;;;;;5068494;28;20200;-71
2021/04/23 04:58:50;;;;;;;8.18;4.00;;;1.70;99.90;;;;;;5066292;28;20742;-71
2021/04/23 05:01:16;;;;;;;10.05;4.30;;;1.80;99.90;;;;;;5068723;28;20204;-71
2021/04/23 05:03:43;;;;;;;8.18;4.57;;;1.70;99.90;;;;;;5069262;28;20208;-71
2021/04/23 05:06:12;;;;;;;14.50;4.43;;;1.80;99.90;;;;;;5069017;28;20219;-71
2021/04/23 05:08:39;;;;;;;7.10;4.60;;;1.80;99.90;;;;;;5068489;28;20229;-71
2021/04/23 05:11:05;;;;;;;8.75;4.75;;;1.90;99.90;;;;;;5068498;28;20270;-71
2021/04/23 05:13:36;;;;;;;7.50;4.45;;;2.00;99.90;;;;;;5110852;22;20216;-92
2021/04/23 05:16:22;;;;;;;;;;;;;;;;;;;;;
2021/04/23 05:18:51;;;;;;;6.05;3.78;;;2.10;99.90;;;;;;5095732;28;20392;-91
2021/04/23 05:21:21;;;;;;;7.40;4.43;;;2.10;99.90;;;;;;5089768;28;20342;-92
2021/04/23 05:23:52;;;;;;;8.27;4.25;;;2.20;99.90;;;;;;5088907;28;20295;-92
2021/04/23 05:26:33;;;;;;;5.53;3.90;;;2.30;99.90;;;;;;5086726;28;20228;-92
2021/04/23 05:29:04;;;;;;;4.93;3.65;;;2.40;99.90;;;;;;5087885;28;20620;-92
2021/04/23 05:31:31;;;;;;;11.50;4.45;;;2.50;99.90;;;;;;5090096;28;20275;-94
2021/04/23 05:33:59;;;;;;;9.35;3.50;;;2.70;99.90;;;;;;5089843;28;20196;-92
2021/04/23 05:36:30;;;;;;;6.25;3.05;;;2.80;99.90;;;;;;5088545;28;20264;-92
2021/04/23 05:38:59;;;;;;;5.40;3.45;;;2.90;99.60;;;;;;5083521;28;20236;-91
2021/04/23 05:41:31;;;;;;;9.93;3.58;;;3.00;99.40;;;;;;5078530;28;20230;-91
2021/04/23 05:44:04;;;;;;;9.60;2.88;;;3.10;99.50;;;;;;5084562;28;20204;-91
2021/04/23 05:47:01;;;;;;;3.30;2.97;;;3.20;99.90;;;;;;5084658;28;20200;-91
2021/04/23 05:49:30;;;;;;;4.80;3.20;;;3.30;99.70;;;;;;5081168;28;20212;-91
2021/04/23 05:51:57;;;;;;;5.40;3.40;;;3.40;99.80;;;;;;5081046;28;20231;-92
2021/04/23 05:54:29;;;;;;;5.40;3.20;;;3.50;99.70;;;;;;5086370;28;20208;-92
2021/04/23 05:56:55;;;;;;;7.30;3.40;;;3.60;99.60;;;;;;5098124;22;20228;-73
2021/04/23 05:59:21;;;;;;;9.85;4.22;;;3.80;99.70;;;;;;5079819;28;20679;-71
2021/04/23 06:01:48;;;;;;;9.30;3.97;;;3.90;99.60;;;;;;5090760;28;20199;-71
2021/04/23 06:04:15;;;;;;;6.90;4.15;;;4.10;99.10;;;;;;5092655;28;20208;-70
2021/04/23 06:06:41;;;;;;;10.35;4.60;;;4.20;98.80;;;;;;5092528;28;20196;-71
2021/04/23 06:09:09;;;;;;;6.75;3.65;;;4.30;98.10;;;;;;5092551;28;20219;-72
2021/04/23 06:11:36;;;;;;;7.97;4.32;;;4.50;97.60;;;;;;5089774;28;20203;-72
2021/04/23 06:14:02;;;;;;;8.80;4.63;;;4.60;97.40;;;;;;5068030;28;20207;-71
2021/04/23 06:16:28;;;;;;;8.77;4.30;;;4.80;97.20;;;;;;5069549;28;20253;-71
2021/04/23 06:18:55;;;;;;;13.15;5.57;;;4.90;98.30;;;;;;5069952;28;20220;-71
2021/04/23 06:21:21;;;;;;;7.55;4.40;;;5.10;99.00;;;;;;5065970;28;20212;-71
2021/04/23 06:23:48;;;;;;;9.20;5.03;;;5.20;97.00;;;;;;5066916;28;20216;-72
2021/04/23 06:26:16;;;;;;;8.48;4.22;;;5.40;96.20;;;;;;5067660;28;20297;-72
2021/04/23 06:28:44;;;;;;;7.20;4.65;;;5.50;95.80;;;;;;5065311;28;20248;-71
2021/04/23 06:31:11;;;;;;;6.68;5.32;;;5.60;95.40;;;;;;5066708;28;20215;-72
2021/04/23 06:33:39;;;;;;;8.07;4.97;;;5.80;95.20;;;;;;5067278;28;20196;-71
2021/04/23 06:36:08;;;;;;;8.63;4.40;;;5.90;95.20;;;;;;5067384;28;20205;-71
2021/04/23 06:38:35;;;;;;;9.10;5.32;;;6.00;95.00;;;;;;5065302;28;20239;-71
2021/04/23 06:41:02;;;;;;;9.10;5.00;;;6.10;95.10;;;;;;5066867;28;20701;-72
2021/04/23 06:43:29;;;;;;;6.38;4.07;;;6.20;94.80;;;;;;5067260;28;20788;-72
2021/04/23 06:45:56;;;;;;;6.38;4.30;;;6.40;94.70;;;;;;5068029;28;20216;-71
2021/04/23 06:48:22;;;;;;;9.88;4.10;;;6.50;93.50;;;;;;5067862;28;20852;-72
2021/04/23 06:50:49;;;;;;;6.55;4.65;;;6.60;93.20;;;;;;5065652;28;20861;-72
2021/04/23 06:53:15;;;;;;;14.60;4.93;;;6.80;94.00;;;;;;5063979;28;20204;-72
2021/04/23 06:55:43;;;;;;;10.02;4.15;;;7.00;93.00;;;;;;5067930;28;20231;-71
2021/04/23 06:58:10;;;;;;;7.20;4.15;;;7.20;92.90;;;;;;5068002;28;20212;-72
2021/04/23 07:00:39;;;;;;;6.88;3.97;;;7.20;92.00;;;;;;5068040;28;20679;-71
2021/04/23 07:03:08;;;;;;;8.57;4.45;;;7.40;91.80;;;;;;5068293;28;20207;-72
2021/04/23 07:05:34;;;;;;;8.75;4.65;;;7.50;92.00;;;;;;5068017;28;20208;-71
2021/04/23 07:08:00;;;;;;;8.77;4.18;;;7.70;92.30;;;;;;5068343;28;20238;-72
2021/04/23 07:10:29;;;;;;;8.43;4.72;;;7.80;92.70;;;;;;5067714;28;20827;-72
2021/04/23 07:12:57;;;;;;;5.65;3.92;;;8.00;93.10;;;;;;5067828;28;20220;-72
2021/04/23 07:15:26;;;;;;;6.53;4.30;;;8.10;91.60;;;;;;5068270;28;20588;-72
2021/04/23 07:17:53;;;;;;;6.65;4.50;;;8.30;92.10;;;;;;5067503;28;20574;-72
2021/04/23 07:20:20;;;;;;;5.68;3.75;;;8.40;92.30;;;;;;5082861;28;20215;-71
2021/04/23 07:22:47;;;;;;;9.70;4.60;;;8.50;91.90;;;;;;5087950;28;20231;-72
2021/04/23 07:25:14;;;;;;;7.82;4.40;;;8.60;91.70;;;;;;5087676;28;20211;-72
2021/04/23 07:27:41;;;;;;;11.63;5.07;;;8.80;92.00;;;;;;5086997;28;20246;-72
2021/04/23 07:30:11;;;;;;;14.55;4.15;;;8.90;91.60;;;;;;5087591;28;20226;-72
2021/04/23 07:32:37;;;;;;;19.90;4.78;;;8.90;90.70;;;;;;5085942;28;20204;-71
2021/04/23 07:35:06;;;;;;;8.77;4.40;;;9.00;90.90;;;;;;5068014;28;20790;-72
2021/04/23 07:37:32;;;;;;;10.05;4.05;;;9.10;91.10;;;;;;5067218;28;20204;-72
2021/04/23 07:39:58;;;;;;;6.45;3.90;;;9.30;90.20;;;;;;5066904;28;20742;-71
2021/04/23 07:42:25;;;;;;;8.23;4.40;;;9.40;90.40;;;;;;5066358;28;20199;-71
2021/04/23 07:44:51;;;;;;;8.02;5.00;;;9.50;89.50;;;;;;5066707;28;20207;-72
2021/04/23 07:47:18;;;;;;;13.18;5.70;;;9.50;88.50;;;;;;5067486;28;20231;-72
2021/04/23 07:49:47;;;;;;;7.38;4.07;;;9.70;89.10;;;;;;5066773;28;20730;-72
2021/04/23 07:52:14;;;;;;;5.28;4.53;;;9.80;88.10;;;;;;5065347;28;20208;-72
2021/04/23 07:54:40;;;;;;;11.20;4.15;;;9.90;89.20;;;;;;5066969;28;20219;-72
2021/04/23 07:57:08;;;;;;;8.45;4.20;;;10.10;87.90;;;;;;5066476;28;20216;-72
2021/04/23 07:59:34;;;;;;;11.73;4.70;;;10.30;88.50;;;;;;5066414;28;20224;-72
2021/04/23 08:02:02;;;;;;;8.18;4.65;;;10.40;87.00;;;;;;5066807;28;20201;-71
2021/04/23 08:04:29;;;;;;;7.53;4.40;;;10.50;85.70;;;;;;5066616;28;20260;-71
2021/04/23 08:06:55;;;;;;;11.32;4.35;;;10.70;85.20;;;;;;5065577;28;20204;-72
2021/04/23 08:09:22;;;;;;;12.95;4.15;;;10.80;83.90;;;;;;5067169;28;20216;-73
2021/04/23 08:11:49;;;;;;;9.35;4.80;;;10.90;85.00;;;;;;5065719;28;20599;-72
2021/04/23 08:14:15;;;;;;;8.25;4.60;;;11.10;87.50;;;;;;5066153;28;20216;-72
2021/04/23 08:16:41;;;;;;;9.38;4.72;;;11.40;85.80;;;;;;5066532;28;20555;-72
2021/04/23 08:19:07;;;;;;;9.80;5.05;;;11.70;84.40;;;;;;5066305;28;20974;-72
2021/04/23 08:21:34;;;;;;;6.63;4.63;;;12.00;83.40;;;;;;5065643;28;20196;-72
2021/04/23 08:24:00;;;;;;;8.57;5.37;;;12.40;83.20;;;;;;5080573;28;20252;-72
2021/04/23 08:26:27;;;;;;;11.03;5.50;;;12.80;80.00;;;;;;5086701;28;20944;-72
2021/04/23 08:28:53;;;;;;;10.37;5.03;;;13.30;80.00;;;;;;5085785;28;20500;-72
2021/04/23 08:31:20;;;;;;;9.83;4.97;;;13.50;81.40;;;;;;5086292;28;20461;-72
2021/04/23 08:33:46;;;;;;;7.53;4.43;;;13.50;75.50;;;;;;5086215;28;21332;-71
2021/04/23 08:36:13;;;;;;;9.83;5.03;;;13.80;78.20;;;;;;5086553;28;20473;-71
2021/04/23 08:38:39;;;;;;;9.90;5.07;;;14.10;77.30;;;;;;5086112;28;20481;-71
2021/04/23 08:41:07;;;;;;;8.03;5.53;;;14.60;76.10;;;;;;5086029;28;20462;-71
2021/04/23 08:43:35;;;;;;;10.97;6.10;;;15.10;75.60;;;;;;5085687;28;20481;-72
2021/04/23 08:46:02;;;;;;;11.17;4.70;;;15.60;74.50;;;;;;5086277;28;20489;-72
2021/04/23 08:48:29;;;;;;;11.07;5.23;;;15.90;72.50;;;;;;5085508;28;20480;-71
2021/04/23 08:50:56;;;;;;;8.63;6.40;;;16.20;68.60;;;;;;5085361;28;20515;-72
2021/04/23 08:53:27;;;;;;;11.80;5.60;;;16.30;70.10;;;;;;5086000;28;20976;-71
2021/04/23 08:55:54;;;;;;;7.47;5.13;;;16.60;67.90;;;;;;5084457;28;20830;-72
2021/04/23 08:58:20;;;;;;;9.13;6.07;;;16.70;66.50;;;;;;5085655;28;20830;-72
2021/04/23 09:00:48;;;;;;;11.47;5.40;;;17.10;65.60;;;;;;5085472;28;21021;-72
2021/04/23 09:03:16;;;;;;;10.03;5.83;;;17.20;68.10;;;;;;5086150;28;20484;-73
2021/04/23 09:05:42;;;;;;;7.50;5.00;;;17.70;67.00;;;;;;5085984;28;20461;-73
2021/04/23 09:08:11;;;;;;;7.50;5.00;;;17.90;66.60;;;;;;5088714;28;20453;-72
2021/04/23 09:10:39;;;;;;;9.43;5.23;;;18.30;65.20;;;;;;5088393;28;20526;-72
2021/04/23 09:13:09;;;;;;;9.03;5.03;;;18.70;62.60;;;;;;5088705;28;20507;-73
2021/04/23 09:15:37;;;;;;;7.13;4.10;;;18.70;61.10;;;;;;5088402;28;20462;-71
2021/04/23 09:18:06;;;;;;;7.23;4.57;;;19.10;63.50;;;;;;5088428;28;20469;-73
2021/04/23 09:20:33;;;;;;;10.27;5.73;;;19.40;60.60;;;;;;5088348;28;21135;-72
2021/04/23 09:23:12;;;;;;;7.10;5.13;;;19.00;60.60;;;;;;5088944;28;20453;-72
2021/04/23 09:25:43;;;;;;;7.77;5.47;;;18.90;61.40;;;;;;5088708;28;20457;-72
2021/04/23 09:28:10;;;;;;;8.87;5.03;;;19.40;61.60;;;;;;5088807;28;20458;-72
2021/04/23 09:30:36;;;;;;;7.97;5.10;;;19.90;62.40;;;;;;5088034;28;20449;-71
2021/04/23 09:33:03;;;;;;;10.37;5.67;;;20.20;61.30;;;;;;5088932;28;20461;-72
2021/04/23 09:35:36;;;;;;;9.07;5.63;;;20.10;58.40;;;;;;5090646;28;20445;-72
2021/04/23 09:38:03;;;;;;;7.20;5.60;;;20.30;60.30;;;;;;5092681;28;20945;-72
2021/04/23 09:40:31;;;;;;;9.87;5.27;;;20.60;58.90;;;;;;5092138;28;20477;-72
2021/04/23 09:42:59;;;;;;;8.80;5.20;;;20.80;59.90;;;;;;5089227;28;20465;-73
2021/04/23 09:45:26;;;;;;;13.17;6.17;;;21.40;59.10;;;;;;5071720;28;20458;-73
2021/04/23 09:47:55;;;;;;;10.50;5.90;;;21.20;58.60;;;;;;5077269;28;20461;-72
2021/04/23 09:50:28;;;;;;;7.40;5.20;;;21.40;59.10;;;;;;5091286;28;20527;-73
2021/04/23 09:52:57;;;;;;;7.70;5.23;;;21.70;58.10;;;;;;5092037;28;20960;-72
2021/04/23 09:55:27;;;;;;;8.20;5.53;;;22.10;57.10;;;;;;5091651;28;20460;-73
2021/04/23 09:57:58;;;;;;;6.73;5.57;;;22.40;55.70;;;;;;5068759;28;20494;-73
2021/04/23 10:00:26;;;;;;;9.07;5.23;;;22.80;54.00;;;;;;5071299;28;20490;-73
2021/04/23 10:02:57;;;;;;;9.57;5.73;;;23.00;55.10;;;;;;5083950;28;20519;-72
2021/04/23 10:05:32;;;;;;;8.43;5.40;;;23.10;54.50;;;;;;5092119;28;20533;-72
2021/04/23 10:08:00;;;;;;;12.87;7.20;;;22.80;56.20;;;;;;5083872;28;20469;-73
2021/04/23 10:10:27;;;;;;;7.90;5.03;;;23.40;54.40;;;;;;5079225;28;20500;-73
2021/04/23 10:12:55;;;;;;;6.60;5.10;;;23.60;54.10;;;;;;5079142;28;21328;-73
2021/04/23 10:15:23;;;;;;;6.60;5.70;;;23.50;54.00;;;;;;5078415;28;20541;-73
2021/04/23 10:17:52;;;;;;;10.20;5.23;;;23.80;53.60;;;;;;5077658;28;20481;-73
2021/04/23 10:20:21;;;;;;;6.40;5.43;;;24.20;54.50;;;;;;5075056;28;20482;-73
2021/04/23 10:22:48;;;;;;;11.33;5.30;;;23.90;52.40;;;;;;5070165;28;20824;-73
2021/04/23 10:25:16;;;;;;;6.20;5.30;;;24.00;52.20;;;;;;5069846;28;20866;-73
2021/04/23 10:27:44;;;;;;;10.13;5.10;;;24.10;51.00;;;;;;5068663;28;20455;-73
2021/04/23 10:30:14;;;;;;;5.90;4.53;;;23.90;52.60;;;;;;5067510;28;20474;-74
2021/04/23 10:32:42;;;;;;;8.07;5.37;;;24.40;52.60;;;;;;5068126;28;20465;-74
2021/04/23 10:35:11;;;;;;;6.00;4.50;;;24.70;52.00;;;;;;5067618;28;20454;-70
2021/04/23 10:37:39;;;;;;;8.97;4.50;;;24.70;48.70;;;;;;5068381;28;20868;-73
2021/04/23 10:40:07;;;;;;;8.13;4.97;;;24.80;51.10;;;;;;5068219;28;21002;-71
2021/04/23 10:42:48;;;;;;;6.80;5.30;;;24.60;51.20;;;;;;5068159;28;20877;-72
2021/04/23 10:45:20;;;;;;;9.90;5.63;;;24.70;52.10;;;;;;5067606;28;20500;-71
2021/04/23 10:47:47;;;;;;;8.57;5.33;;;24.90;52.40;;;;;;5065511;28;20853;-72
2021/04/23 10:50:16;;;;;;;8.00;5.67;;;24.60;52.20;;;;;;5065909;28;20505;-71
2021/04/23 10:53:07;;;;;;;8.27;4.90;;;24.50;50.50;;;;;;5063865;28;20482;-73
2021/04/23 10:55:43;;;;;;;8.40;5.83;;;24.80;50.70;;;;;;5066770;28;20461;-70
2021/04/23 10:58:12;;;;;;;5.93;4.37;;;25.10;49.40;;;;;;5063229;28;20496;-70
2021/04/23 11:00:42;;;;;;;13.33;4.43;;;25.10;49.30;;;;;;5066711;28;20766;-72
2021/04/23 11:03:29;;;;;;;7.87;4.20;;;24.90;47.40;;;;;;5065330;28;20463;-71
2021/04/23 11:05:58;;;;;;;9.10;4.80;;;24.90;49.80;;;;;;5067340;28;20474;-71
2021/04/23 11:08:25;;;;;;;6.30;4.60;;;25.00;48.70;;;;;;5054003;28;20894;-72
2021/04/23 11:11:15;;;;;;;5.33;4.43;;;25.00;48.90;;;;;;5058383;28;21059;-72
2021/04/23 11:13:45;;;;;;;5.70;4.17;;;25.20;46.70;;;;;;5061551;28;21188;-71
2021/04/23 11:16:46;;;;;;;7.33;4.77;;;25.20;45.90;;;;;;5066130;28;20477;-72
2021/04/23 11:19:35;;;;;;;7.03;4.10;;;25.20;46.60;;;;;;5067376;28;20492;-71
2021/04/23 11:22:11;;;;;;;8.10;5.57;;;25.70;49.00;;;;;;5067249;28;20454;-72
2021/04/23 11:24:38;;;;;;;6.13;4.30;;;25.90;50.00;;;;;;5066805;28;20458;-72
2021/04/23 11:27:10;;;;;;;6.87;4.13;;;26.40;49.40;;;;;;5065864;28;20494;-72
2021/04/23 11:30:02;;;;;;;6.70;3.90;;;26.60;45.70;;;;;;5066991;28;21170;-72
2021/04/23 11:32:31;;;;;;;6.90;4.80;;;26.10;47.40;;;;;;5066582;28;20467;-72
2021/04/23 11:35:00;;;;;;;7.17;4.40;;;26.00;45.00;;;;;;5067539;28;20565;-71
2021/04/23 11:37:28;;;;;;;12.07;4.83;;;25.90;48.00;;;;;;5065111;28;20461;-71
2021/04/23 11:39:57;;;;;;;5.97;4.07;;;25.90;44.70;;;;;;5076126;28;20554;-73
2021/04/23 11:42:25;;;;;;;4.67;3.93;;;26.20;44.60;;;;;;5087708;28;20458;-72
2021/04/23 11:44:55;;;;;;;6.30;3.63;;;26.40;44.50;;;;;;5087101;28;20453;-73
2021/04/23 11:47:34;;;;;;;5.00;3.33;;;26.70;45.10;;;;;;5086808;28;20457;-73
2021/04/23 11:50:10;;;;;;;5.90;3.37;;;26.70;43.00;;;;;;5087570;28;20516;-72
2021/04/23 11:52:37;;;;;;;5.23;4.10;;;26.50;40.40;;;;;;5085271;28;20457;-74
2021/04/23 11:55:10;;;;;;;5.53;3.97;;;26.00;42.10;;;;;;5089246;28;20457;-74
2021/04/23 11:57:36;;;;;;;8.23;4.10;;;25.30;42.30;;;;;;5097910;28;20465;-73
2021/04/23 12:00:11;;;;;;;5.37;3.50;;;25.10;44.80;;;;;;5086822;28;20581;-73
2021/04/23 12:02:51;;;;;;;5.53;4.27;;;24.80;44.80;;;;;;5086804;28;20457;-72
2021/04/23 12:05:36;;;;;;;6.43;4.13;;;25.00;41.10;;;;;;5066136;28;20462;-72
2021/04/23 12:08:07;;;;;;;5.20;4.47;;;24.90;46.00;;;;;;5066475;28;20454;-73
2021/04/23 12:10:35;;;;;;;5.77;3.67;;;25.10;45.90;;;;;;5065808;28;20458;-74
2021/04/23 12:13:06;;;;;;;5.13;3.80;;;25.30;44.70;;;;;;5066324;28;20832;-72
2021/04/23 12:15:35;;;;;;;4.63;3.57;;;25.30;45.70;;;;;;5067631;28;20453;-73
2021/04/23 12:18:03;;;;;;;6.70;3.40;;;25.60;43.90;;;;;;5086688;28;20886;-72
2021/04/23 12:20:34;;;;;;;4.00;3.60;;;25.30;44.20;;;;;;5085725;28;20924;-72
2021/04/23 12:23:01;;;;;;;5.10;3.10;;;25.60;44.00;;;;;;5086276;28;20865;-73
2021/04/23 12:25:34;;;;;;;4.73;3.90;;;25.80;41.90;;;;;;5085890;28;20961;-73
2021/04/23 12:28:22;;;;;;;5.60;3.80;;;25.70;42.80;;;;;;5084488;28;20526;-72
2021/04/23 12:30:51;;;;;;;6.27;5.13;;;25.20;44.60;;;;;;5084823;28;20461;-73
2021/04/23 12:33:18;;;;;;;6.80;5.00;;;25.80;44.60;;;;;;5085813;28;20474;-73
2021/04/23 12:35:46;;;;;;;7.00;4.20;;;26.30;42.40;;;;;;5085472;28;20980;-72
2021/04/23 12:38:14;;;;;;;8.37;4.40;;;26.10;42.30;;;;;;5072824;28;20460;-70
2021/04/23 12:40:43;;;;;;;7.50;3.30;;;26.30;42.10;;;;;;5074049;28;20602;-71
2021/04/23 12:43:18;;;;;;;6.43;3.70;;;26.20;42.40;;;;;;5085579;28;20461;-71
2021/04/23 12:45:47;;;;;;;9.23;4.00;;;26.30;41.60;;;;;;5084918;28;20505;-70
2021/04/23 12:48:15;;;;;;;7.37;4.47;;;26.30;40.40;;;;;;5085143;28;20464;-71
2021/04/23 12:50:43;;;;;;;7.80;4.10;;;26.30;41.70;;;;;;5084737;28;20884;-72
2021/04/23 12:53:10;;;;;;;6.07;4.00;;;26.40;42.80;;;;;;5083978;28;20457;-71
2021/04/23 12:55:38;;;;;;;3.70;3.07;;;26.20;42.80;;;;;;5085871;28;20459;-71
2021/04/23 12:58:06;;;;;;;3.73;3.40;;;25.80;38.90;;;;;;5085337;28;20468;-72
2021/04/23 13:00:34;;;;;;;6.80;4.10;;;25.80;41.20;;;;;;5084206;28;20490;-71